Nashville, Tennessee
Traffic Map
Current Weather Conditions
Nashville, Tennessee
Clear
Clear
21°
Feels Like: 21°
Wind Chill: 21° Ceiling: Unl
Heat Index: 21° Visibility: 10mi
Dew Point: 11° Wind: 12mph
Humidity: 51% Direction: 350° (N)
Pressure: 30.11in Gusts: 0mph
Raw Report DataKBNA 291453Z 35010KT 10SM CLR 21/11 A3011 RMK AO2 SLP191 T02110106 51010
Traffic Incident Summary
Active as of:
Severity:
Category:
InformationThere was an issue retrieving the traffic information for this location. Please try a different location or try again shortly.
Advertisements
Track Severe Weather on mobile